createdAt,value
2023-02-24T00:01:51.673Z,19.77
2023-02-24T00:04:21.590Z,21.70
2023-02-24T00:06:50.256Z,19.87
2023-02-24T00:09:20.451Z,22.90
2023-02-24T00:11:50.111Z,20.87
2023-02-24T00:14:19.916Z,21.40
2023-02-24T00:16:49.527Z,20.17
2023-02-24T00:19:20.616Z,20.37
2023-02-24T00:21:49.651Z,21.90
2023-02-24T00:24:18.396Z,20.83
2023-02-24T00:26:48.383Z,21.43
2023-02-24T00:29:16.814Z,18.57
2023-02-24T00:31:47.219Z,18.87
2023-02-24T00:34:16.201Z,21.67
2023-02-24T00:36:44.611Z,18.80
2023-02-24T00:39:13.660Z,20.23
2023-02-24T00:41:43.671Z,20.30
2023-02-24T00:44:14.132Z,19.20
2023-02-24T00:46:44.670Z,17.70
2023-02-24T00:49:17.162Z,21.50
2023-02-24T00:51:47.693Z,19.83
2023-02-24T00:54:17.161Z,20.20
2023-02-24T00:56:46.601Z,20.53
2023-02-24T00:59:18.812Z,20.30
2023-02-24T01:01:49.673Z,17.90
2023-02-24T01:04:21.147Z,18.23
2023-02-24T01:06:51.337Z,20.17
2023-02-24T01:09:21.607Z,19.43
2023-02-24T01:12:22.094Z,17.60
2023-02-24T01:14:52.606Z,18.43
2023-02-24T01:17:21.975Z,17.77
2023-02-24T01:19:51.979Z,17.97
2023-02-24T01:22:21.574Z,18.30
2023-02-24T01:24:50.051Z,17.67
2023-02-24T01:27:19.872Z,17.97
2023-02-24T01:29:48.933Z,17.93
2023-02-24T01:32:19.996Z,17.23
2023-02-24T01:34:52.377Z,18.17
2023-02-24T01:37:21.378Z,18.73
2023-02-24T01:39:50.128Z,18.37
2023-02-24T01:42:22.014Z,16.83
2023-02-24T01:45:25.396Z,17.57
2023-02-24T01:47:55.130Z,18.20
2023-02-24T01:50:26.418Z,16.17
2023-02-24T01:52:58.245Z,18.97
2023-02-24T01:55:32.015Z,21.43
2023-02-24T01:58:04.609Z,17.40
2023-02-24T02:00:37.694Z,17.43
2023-02-24T02:03:13.309Z,18.20
2023-02-24T02:05:45.253Z,16.53
2023-02-24T02:08:14.584Z,19.37
2023-02-24T02:10:45.122Z,16.23
2023-02-24T02:13:16.605Z,17.00
2023-02-24T02:15:56.808Z,17.10
2023-02-24T02:18:34.512Z,17.13
2023-02-24T02:21:36.320Z,17.70
2023-02-24T02:24:19.459Z,18.13
2023-02-24T02:27:19.876Z,16.57
2023-02-24T02:30:27.078Z,16.57
2023-02-24T02:33:30.384Z,15.97
2023-02-24T02:36:07.076Z,16.00
2023-02-24T02:38:39.107Z,15.73
2023-02-24T02:41:12.311Z,17.87
2023-02-24T02:43:43.946Z,17.20
2023-02-24T02:46:15.172Z,16.67
2023-02-24T02:48:48.646Z,15.90
2023-02-24T02:51:20.742Z,16.97
2023-02-24T02:53:53.631Z,17.30
2023-02-24T02:56:25.594Z,16.87
2023-02-24T02:58:55.757Z,16.17
2023-02-24T03:01:29.469Z,16.23
2023-02-24T03:04:01.324Z,16.87
2023-02-24T03:06:36.526Z,18.40
2023-02-24T03:09:11.402Z,16.47
2023-02-24T03:11:41.387Z,17.93
2023-02-24T03:14:12.980Z,15.30
2023-02-24T03:16:43.051Z,15.13
2023-02-24T03:19:14.273Z,13.70
2023-02-24T03:21:46.327Z,15.80
2023-02-24T03:24:15.619Z,14.17
2023-02-24T03:26:50.361Z,16.07
2023-02-24T03:29:24.051Z,16.53
2023-02-24T03:31:59.401Z,15.73
2023-02-24T03:34:34.450Z,17.47
2023-02-24T03:37:04.674Z,14.40
2023-02-24T03:39:33.759Z,15.80
2023-02-24T03:42:06.106Z,15.63
2023-02-24T03:44:34.627Z,16.70
2023-02-24T03:47:03.799Z,17.13
2023-02-24T03:49:32.358Z,15.93
2023-02-24T03:52:12.537Z,14.27
2023-02-24T03:55:10.253Z,16.67
2023-02-24T03:57:56.132Z,14.80
2023-02-24T04:00:29.592Z,14.50
2023-02-24T04:03:04.563Z,14.40
2023-02-24T04:05:34.918Z,14.50
2023-02-24T04:08:07.194Z,13.87
2023-02-24T04:10:38.726Z,14.33
2023-02-24T04:13:12.192Z,15.17
2023-02-24T04:15:43.929Z,13.83
2023-02-24T04:18:17.826Z,12.80
2023-02-24T04:20:49.429Z,14.20
2023-02-24T04:23:21.860Z,13.20
2023-02-24T04:25:53.122Z,12.67
2023-02-24T04:28:23.421Z,13.83
2023-02-24T04:30:54.062Z,12.50
2023-02-24T04:33:22.711Z,12.70
2023-02-24T04:35:51.868Z,11.20
2023-02-24T04:38:21.901Z,13.73
2023-02-24T04:40:51.132Z,17.83
2023-02-24T04:43:20.056Z,18.00
2023-02-24T04:45:48.462Z,14.30
2023-02-24T04:48:16.961Z,12.13
2023-02-24T04:50:45.729Z,11.87
2023-02-24T04:53:15.886Z,10.43
2023-02-24T04:55:48.923Z,11.30
2023-02-24T04:58:20.268Z,11.67
2023-02-24T05:00:52.597Z,11.53
2023-02-24T05:03:22.386Z,11.17
2023-02-24T05:05:53.029Z,10.80
2023-02-24T05:08:21.646Z,12.37
2023-02-24T05:10:52.474Z,12.60
2023-02-24T05:13:25.390Z,10.37
2023-02-24T05:15:54.444Z,12.10
2023-02-24T05:18:23.857Z,11.00
2023-02-24T05:21:11.802Z,12.80
2023-02-24T05:23:44.259Z,11.33
2023-02-24T05:26:17.021Z,10.40
2023-02-24T05:28:49.196Z,11.07
2023-02-24T05:31:20.026Z,9.37
2023-02-24T05:33:50.278Z,10.20
2023-02-24T05:36:19.854Z,9.57
2023-02-24T05:38:51.942Z,9.77
2023-02-24T05:41:22.493Z,9.37
2023-02-24T05:43:54.876Z,8.67
2023-02-24T05:46:28.353Z,8.93
2023-02-24T05:48:58.042Z,9.77
2023-02-24T05:51:26.623Z,10.00
2023-02-24T05:53:56.485Z,12.20
2023-02-24T05:56:27.290Z,9.97
2023-02-24T05:59:02.200Z,13.77
2023-02-24T06:01:32.702Z,13.47
2023-02-24T06:04:05.791Z,12.17
2023-02-24T06:06:36.274Z,10.77
2023-02-24T06:09:10.714Z,12.83
2023-02-24T06:11:42.227Z,12.53
2023-02-24T06:14:11.700Z,11.90
2023-02-24T06:16:43.416Z,12.80
2023-02-24T06:19:13.254Z,14.13
2023-02-24T06:21:43.828Z,13.37
2023-02-24T06:24:14.546Z,14.97
2023-02-24T06:26:44.895Z,17.50
2023-02-24T06:29:15.036Z,16.13
2023-02-24T06:31:44.127Z,13.63
2023-02-24T06:34:13.312Z,28.73
2023-02-24T06:36:43.113Z,21.30
2023-02-24T06:39:14.574Z,21.80
2023-02-24T06:41:44.502Z,21.13
2023-02-24T06:44:13.804Z,16.23
2023-02-24T06:46:42.261Z,14.40
2023-02-24T06:49:11.630Z,12.40
2023-02-24T06:51:40.278Z,12.60
2023-02-24T06:54:08.771Z,15.10
2023-02-24T06:56:38.881Z,13.57
2023-02-24T06:59:11.931Z,14.30
2023-02-24T07:01:45.386Z,13.97
2023-02-24T07:04:20.991Z,12.80
2023-02-24T07:06:52.514Z,15.53
2023-02-24T07:09:24.008Z,12.77
2023-02-24T07:11:55.998Z,10.13
2023-02-24T07:14:27.283Z,12.20
2023-02-24T07:16:57.096Z,11.97
2023-02-24T07:19:27.273Z,16.13
2023-02-24T07:22:00.295Z,18.73
2023-02-24T07:24:35.897Z,25.47
2023-02-24T07:27:06.063Z,24.50
2023-02-24T07:29:37.790Z,25.77
2023-02-24T07:32:09.077Z,30.50
2023-02-24T07:34:40.285Z,26.17
2023-02-24T07:37:09.892Z,24.77
2023-02-24T07:39:39.459Z,24.97
2023-02-24T07:42:09.293Z,24.77
2023-02-24T07:44:39.993Z,21.80
2023-02-24T07:47:08.870Z,18.80
2023-02-24T07:49:39.142Z,18.83
2023-02-24T07:52:08.228Z,17.17
2023-02-24T07:54:36.933Z,17.93
2023-02-24T07:57:13.536Z,17.20
2023-02-24T07:59:46.810Z,16.90
2023-02-24T08:02:15.641Z,15.00
2023-02-24T08:04:50.107Z,14.80
2023-02-24T08:07:24.438Z,12.03
2023-02-24T08:10:14.216Z,12.20
2023-02-24T08:12:47.592Z,14.67
2023-02-24T08:15:24.304Z,14.33
2023-02-24T08:17:56.228Z,25.07
2023-02-24T08:20:30.226Z,26.17
2023-02-24T08:22:59.309Z,16.33
2023-02-24T08:25:35.824Z,13.03
2023-02-24T08:28:08.824Z,14.67
2023-02-24T08:30:44.928Z,14.17
2023-02-24T08:33:17.493Z,14.53
2023-02-24T08:35:46.188Z,13.63
2023-02-24T08:38:17.589Z,14.00
2023-02-24T08:40:55.047Z,15.93
2023-02-24T08:43:33.039Z,15.03
2023-02-24T08:46:18.266Z,12.90
2023-02-24T08:48:48.974Z,16.23
2023-02-24T08:51:22.762Z,14.87
2023-02-24T08:53:53.750Z,13.13
2023-02-24T08:56:25.093Z,16.70
2023-02-24T08:58:58.146Z,17.80
2023-02-24T09:01:34.764Z,14.73
2023-02-24T09:04:05.926Z,15.40
2023-02-24T09:06:41.179Z,16.87
2023-02-24T09:09:22.622Z,15.77
2023-02-24T09:11:56.079Z,20.70
2023-02-24T09:14:28.569Z,16.23
2023-02-24T09:17:12.059Z,17.50
2023-02-24T09:20:02.891Z,19.43
2023-02-24T09:22:33.488Z,22.17
2023-02-24T09:25:19.048Z,16.33
2023-02-24T09:27:52.288Z,15.93
2023-02-24T09:30:38.078Z,18.63
2023-02-24T09:33:21.118Z,13.40
2023-02-24T09:35:52.085Z,15.87
2023-02-24T09:38:36.849Z,21.37
2023-02-24T09:41:32.037Z,18.27
2023-02-24T09:44:03.833Z,15.13
2023-02-24T09:46:37.384Z,13.50
2023-02-24T09:49:15.070Z,14.23
2023-02-24T09:51:43.642Z,13.57
2023-02-24T09:54:16.588Z,12.47
2023-02-24T09:56:57.231Z,12.90
2023-02-24T09:59:33.173Z,13.63
2023-02-24T10:02:14.244Z,14.90
2023-02-24T10:04:55.346Z,18.27
2023-02-24T10:07:38.422Z,15.30
2023-02-24T10:10:20.470Z,15.00
2023-02-24T10:12:52.755Z,16.30
2023-02-24T10:15:50.149Z,15.17
2023-02-24T10:18:30.919Z,13.70
2023-02-24T10:21:06.530Z,14.80
2023-02-24T10:23:45.392Z,14.10
2023-02-24T10:26:30.445Z,13.63
2023-02-24T10:29:09.072Z,12.90
2023-02-24T10:31:46.136Z,13.07
2023-02-24T10:34:20.519Z,12.87
2023-02-24T10:36:51.348Z,13.07
2023-02-24T10:39:25.554Z,13.17
2023-02-24T10:41:58.297Z,15.30
2023-02-24T10:44:36.085Z,14.27
2023-02-24T10:47:12.438Z,13.67
2023-02-24T10:49:44.895Z,14.50
2023-02-24T10:52:33.419Z,14.63
2023-02-24T10:55:08.741Z,17.07
2023-02-24T10:57:58.303Z,17.00
2023-02-24T11:00:51.807Z,16.00
2023-02-24T11:03:36.066Z,13.53
2023-02-24T11:06:20.229Z,14.87
2023-02-24T11:09:18.688Z,15.73
2023-02-24T11:12:05.486Z,22.77
2023-02-24T11:14:53.152Z,13.37
2023-02-24T11:17:27.097Z,13.83
2023-02-24T11:20:01.008Z,15.10
2023-02-24T11:22:34.000Z,14.80
2023-02-24T11:25:10.153Z,14.47
2023-02-24T11:27:42.523Z,16.80
2023-02-24T11:30:17.085Z,15.30
2023-02-24T11:32:59.400Z,14.43
2023-02-24T11:35:35.306Z,14.80
2023-02-24T11:38:09.236Z,15.60
2023-02-24T11:40:43.453Z,16.57
2023-02-24T11:43:14.084Z,13.13
2023-02-24T11:45:47.491Z,16.30
2023-02-24T11:48:19.688Z,17.63
2023-02-24T11:50:52.249Z,14.73
2023-02-24T11:53:29.112Z,15.57
2023-02-24T11:56:05.449Z,13.93
2023-02-24T11:58:47.557Z,14.83
2023-02-24T12:01:22.349Z,14.03
2023-02-24T12:04:04.565Z,18.27
2023-02-24T12:06:40.478Z,17.97
2023-02-24T12:09:15.623Z,13.97
2023-02-24T12:11:55.263Z,15.43
2023-02-24T12:14:29.300Z,15.50
2023-02-24T12:17:07.761Z,17.23
2023-02-24T12:19:42.377Z,18.10
2023-02-24T12:22:16.005Z,17.43
2023-02-24T12:24:49.860Z,16.80
2023-02-24T12:27:28.633Z,16.67
2023-02-24T12:30:23.975Z,15.57
2023-02-24T12:33:02.767Z,16.67
2023-02-24T12:35:37.797Z,18.40
2023-02-24T12:38:17.896Z,16.73
2023-02-24T12:40:53.169Z,17.37
2023-02-24T12:43:30.961Z,16.90
2023-02-24T12:46:05.036Z,18.13
2023-02-24T12:49:05.498Z,17.17
2023-02-24T12:51:37.604Z,16.60
2023-02-24T12:54:10.435Z,17.60
2023-02-24T12:56:44.364Z,17.40
2023-02-24T12:59:17.993Z,16.70
2023-02-24T13:01:52.896Z,17.17
2023-02-24T13:04:35.315Z,15.97
2023-02-24T13:07:11.315Z,17.40
2023-02-24T13:09:44.911Z,19.40
2023-02-24T13:12:17.885Z,17.00
2023-02-24T13:14:48.789Z,17.67
2023-02-24T13:17:21.266Z,18.53
2023-02-24T13:19:52.206Z,17.40
2023-02-24T13:22:32.322Z,18.23
2023-02-24T13:25:21.618Z,18.27
2023-02-24T13:28:01.100Z,18.53
2023-02-24T13:30:38.374Z,17.30
2023-02-24T13:33:21.301Z,20.10
2023-02-24T13:35:51.192Z,17.30
2023-02-24T13:38:35.460Z,18.93
2023-02-24T13:41:21.459Z,18.87
2023-02-24T13:43:58.997Z,18.17
2023-02-24T13:46:32.377Z,17.87
2023-02-24T13:49:05.713Z,18.60
2023-02-24T13:51:55.330Z,18.43
2023-02-24T13:55:00.345Z,20.73
2023-02-24T13:57:48.756Z,19.53
2023-02-24T14:00:27.696Z,17.40
2023-02-24T14:02:57.752Z,18.40
2023-02-24T14:05:28.414Z,20.77
2023-02-24T14:07:57.242Z,21.20
2023-02-24T14:10:28.165Z,18.73
2023-02-24T14:13:04.728Z,21.27
2023-02-24T14:15:35.134Z,21.23
2023-02-24T14:18:06.924Z,20.57
2023-02-24T14:20:37.909Z,21.93
2023-02-24T14:23:22.219Z,20.30
2023-02-24T14:25:54.634Z,21.43
2023-02-24T14:28:25.101Z,21.70
2023-02-24T14:30:59.231Z,20.20
2023-02-24T14:33:33.009Z,19.60
2023-02-24T14:36:02.429Z,20.73
2023-02-24T14:38:33.703Z,21.40
2023-02-24T14:41:02.768Z,22.30
2023-02-24T14:43:31.261Z,22.47
2023-02-24T14:45:59.901Z,24.20
2023-02-24T14:48:31.162Z,22.57
2023-02-24T14:51:02.289Z,23.07
2023-02-24T14:53:34.620Z,25.40
2023-02-24T14:56:06.137Z,20.27
2023-02-24T14:58:38.620Z,23.37
2023-02-24T15:01:13.982Z,23.20
2023-02-24T15:03:48.032Z,23.00
2023-02-24T15:06:22.105Z,24.40
2023-02-24T15:08:53.602Z,21.67
2023-02-24T15:11:23.866Z,25.00
2023-02-24T15:13:54.769Z,24.37
2023-02-24T15:16:26.280Z,23.10
2023-02-24T15:19:00.961Z,23.50
2023-02-24T15:21:32.255Z,23.83
2023-02-24T15:24:03.559Z,22.33
2023-02-24T15:26:33.782Z,23.70
2023-02-24T15:29:03.797Z,21.80
2023-02-24T15:31:32.319Z,23.93
2023-02-24T15:34:03.794Z,23.37
2023-02-24T15:36:33.954Z,23.93
2023-02-24T15:39:05.678Z,23.00
2023-02-24T15:41:41.939Z,24.97
2023-02-24T15:44:28.328Z,20.33
2023-02-24T15:46:57.454Z,24.87
2023-02-24T15:49:27.509Z,22.83
2023-02-24T15:51:59.583Z,21.53
2023-02-24T15:54:30.404Z,22.87
2023-02-24T15:56:59.693Z,22.07
2023-02-24T15:59:29.084Z,20.80
2023-02-24T16:01:57.925Z,24.43
2023-02-24T16:04:27.901Z,19.07
2023-02-24T16:06:57.750Z,20.43
2023-02-24T16:09:33.643Z,24.57
2023-02-24T16:12:11.122Z,20.03
2023-02-24T16:14:41.101Z,22.20
2023-02-24T16:17:12.841Z,22.53
2023-02-24T16:19:44.383Z,19.83
2023-02-24T16:22:15.464Z,23.13
2023-02-24T16:24:44.213Z,21.80
2023-02-24T16:27:16.857Z,22.20
2023-02-24T16:29:45.588Z,24.27
2023-02-24T16:32:15.243Z,21.87
2023-02-24T16:34:48.264Z,23.20
2023-02-24T16:37:18.685Z,21.37
2023-02-24T16:39:49.439Z,23.70
2023-02-24T16:42:22.150Z,29.37
2023-02-24T16:44:51.139Z,20.63
2023-02-24T16:47:22.125Z,22.60
2023-02-24T16:49:55.381Z,22.93
2023-02-24T16:52:24.965Z,21.63
2023-02-24T16:55:01.997Z,22.47
2023-02-24T16:57:30.515Z,22.83
2023-02-24T17:00:01.895Z,20.40
2023-02-24T17:02:30.479Z,18.30
2023-02-24T17:05:00.272Z,18.80
2023-02-24T17:07:28.860Z,19.65
2023-02-24T17:09:57.240Z,15.63
2023-02-24T17:12:25.708Z,17.93
2023-02-24T17:14:54.132Z,17.30
2023-02-24T17:17:22.522Z,19.50
2023-02-24T17:19:51.615Z,18.63
2023-02-24T17:22:22.293Z,18.97
2023-02-24T17:24:50.728Z,18.93
2023-02-24T17:27:19.127Z,16.23
2023-02-24T17:29:47.564Z,20.80
2023-02-24T17:32:16.171Z,21.70
2023-02-24T17:34:44.719Z,19.43
2023-02-24T17:37:13.170Z,17.37
2023-02-24T17:39:44.085Z,19.20
2023-02-24T17:42:12.619Z,18.03
2023-02-24T17:44:41.573Z,17.27
2023-02-24T17:47:11.656Z,16.20
2023-02-24T17:49:40.389Z,19.30
2023-02-24T17:52:11.165Z,17.60
2023-02-24T17:54:42.271Z,19.67
2023-02-24T17:57:12.128Z,19.23
2023-02-24T17:59:40.535Z,19.30
2023-02-24T18:02:10.880Z,18.73
2023-02-24T18:04:43.599Z,19.97
2023-02-24T18:07:13.328Z,21.43
2023-02-24T18:09:43.499Z,24.43
2023-02-24T18:12:13.584Z,21.77
2023-02-24T18:14:42.025Z,20.20
2023-02-24T18:17:10.664Z,20.27
2023-02-24T18:19:40.422Z,19.30
2023-02-24T18:22:11.586Z,17.67
2023-02-24T18:24:40.398Z,18.73
2023-02-24T18:27:11.627Z,20.40
2023-02-24T18:29:41.795Z,16.97
2023-02-24T18:32:10.375Z,17.97
2023-02-24T18:34:38.927Z,17.90
2023-02-24T18:37:07.523Z,19.53
2023-02-24T18:39:35.970Z,18.97
2023-02-24T18:42:04.675Z,17.57
2023-02-24T18:44:33.116Z,20.63
2023-02-24T18:47:09.241Z,19.50
2023-02-24T18:49:38.353Z,21.33
2023-02-24T18:52:07.430Z,21.17
2023-02-24T18:54:36.234Z,19.30
2023-02-24T18:57:04.801Z,20.37
2023-02-24T18:59:33.237Z,19.97
2023-02-24T19:02:03.227Z,21.53
2023-02-24T19:04:31.755Z,21.93
2023-02-24T19:07:00.130Z,19.63
2023-02-24T19:09:28.599Z,19.60
2023-02-24T19:11:58.324Z,21.07
2023-02-24T19:14:26.745Z,19.57
2023-02-24T19:16:55.230Z,18.73
2023-02-24T19:19:25.306Z,22.33
2023-02-24T19:21:53.825Z,22.30
2023-02-24T19:24:22.305Z,21.93
2023-02-24T19:26:51.256Z,21.80
2023-02-24T19:29:20.489Z,20.87
2023-02-24T19:31:53.817Z,19.70
2023-02-24T19:34:23.927Z,20.60
2023-02-24T19:36:52.498Z,17.73
2023-02-24T19:39:20.921Z,19.00
2023-02-24T19:41:49.884Z,16.60
2023-02-24T19:44:18.522Z,18.27
2023-02-24T19:46:47.118Z,18.53
2023-02-24T19:49:16.268Z,18.57
2023-02-24T19:51:48.257Z,22.57
2023-02-24T19:54:17.185Z,18.57
2023-02-24T19:56:45.610Z,18.17
2023-02-24T19:59:14.014Z,18.33
2023-02-24T20:01:42.837Z,18.03
2023-02-24T20:04:11.372Z,18.27
2023-02-24T20:06:41.463Z,16.67
2023-02-24T20:09:15.426Z,18.00
2023-02-24T20:11:45.259Z,19.07
2023-02-24T20:14:14.669Z,15.33
2023-02-24T20:16:43.795Z,18.27
2023-02-24T20:19:13.537Z,17.03
2023-02-24T20:21:42.285Z,15.63
2023-02-24T20:24:14.113Z,16.90
2023-02-24T20:26:43.728Z,17.83
2023-02-24T20:29:12.321Z,16.40
2023-02-24T20:31:41.388Z,16.30
2023-02-24T20:34:10.742Z,14.80
2023-02-24T20:36:39.670Z,15.30
2023-02-24T20:39:08.213Z,13.83
2023-02-24T20:41:38.097Z,15.87
2023-02-24T20:44:07.180Z,16.20
2023-02-24T20:46:36.313Z,18.17
2023-02-24T20:49:06.562Z,16.70
2023-02-24T20:51:37.149Z,17.23
2023-02-24T20:54:06.352Z,16.30
2023-02-24T20:56:38.494Z,16.20
2023-02-24T20:59:08.775Z,17.20
2023-02-24T21:01:37.616Z,13.17
2023-02-24T21:04:07.931Z,18.57
2023-02-24T21:06:37.010Z,19.73
2023-02-24T21:09:05.574Z,16.87
2023-02-24T21:11:34.071Z,14.40
2023-02-24T21:14:04.253Z,14.67
2023-02-24T21:16:32.697Z,14.30
2023-02-24T21:19:01.136Z,13.57
2023-02-24T21:21:29.561Z,14.43
2023-02-24T21:23:58.032Z,13.67
2023-02-24T21:26:29.157Z,17.80
2023-02-24T21:28:59.297Z,15.73
2023-02-24T21:31:29.583Z,16.37
2023-02-24T21:33:58.063Z,18.03
2023-02-24T21:36:27.977Z,21.60
2023-02-24T21:38:56.636Z,23.70
2023-02-24T21:41:25.406Z,22.10
2023-02-24T21:43:55.671Z,20.37
2023-02-24T21:46:28.128Z,17.43
2023-02-24T21:48:58.914Z,21.17
2023-02-24T21:51:28.391Z,19.60
2023-02-24T21:53:57.665Z,15.87
2023-02-24T21:56:27.937Z,14.10
2023-02-24T21:59:00.303Z,15.43
2023-02-24T22:01:30.337Z,15.17
2023-02-24T22:04:02.368Z,15.80
2023-02-24T22:06:32.045Z,15.53
2023-02-24T22:09:00.609Z,15.33
2023-02-24T22:11:31.504Z,16.97
2023-02-24T22:13:59.985Z,17.00
2023-02-24T22:16:28.633Z,15.00
2023-02-24T22:18:57.405Z,15.07
2023-02-24T22:21:28.988Z,18.07
2023-02-24T22:23:59.337Z,16.37
2023-02-24T22:26:29.181Z,19.67
2023-02-24T22:28:57.728Z,19.57
2023-02-24T22:31:28.505Z,17.07
2023-02-24T22:33:56.970Z,16.87
2023-02-24T22:36:29.176Z,17.07
2023-02-24T22:38:59.042Z,15.10
2023-02-24T22:41:29.572Z,13.07
2023-02-24T22:43:58.191Z,12.73
2023-02-24T22:46:28.150Z,14.17
2023-02-24T22:48:56.962Z,17.47
2023-02-24T22:51:27.672Z,16.23
2023-02-24T22:53:57.020Z,16.43
2023-02-24T22:56:27.625Z,14.50
2023-02-24T22:58:56.342Z,16.60
2023-02-24T23:01:27.038Z,16.30
2023-02-24T23:03:56.729Z,21.13
2023-02-24T23:06:26.880Z,16.97
2023-02-24T23:08:55.946Z,17.40
2023-02-24T23:11:27.828Z,16.77
2023-02-24T23:13:57.675Z,21.97
2023-02-24T23:16:29.411Z,16.93
2023-02-24T23:18:59.075Z,15.40
2023-02-24T23:21:33.694Z,17.80
2023-02-24T23:24:02.155Z,18.13
2023-02-24T23:26:31.462Z,16.20
2023-02-24T23:29:00.002Z,17.87
2023-02-24T23:31:29.083Z,16.53
2023-02-24T23:33:58.142Z,18.33
2023-02-24T23:36:28.376Z,13.83
2023-02-24T23:38:57.934Z,19.20
2023-02-24T23:41:26.377Z,18.47
2023-02-24T23:43:54.984Z,16.27
2023-02-24T23:46:23.673Z,16.33
2023-02-24T23:48:53.511Z,16.13
2023-02-24T23:51:22.340Z,14.33
2023-02-24T23:53:52.480Z,12.57
2023-02-24T23:56:22.833Z,16.00
2023-02-24T23:58:51.992Z,16.03
